sensor_id;sensor_type;location;lat;lon;timestamp;temperature;humidity
5846;DHT22;2949;50.778;7.094;2023-01-25T00:02:02;2.00;99.90
5846;DHT22;2949;50.778;7.094;2023-01-25T00:04:28;2.00;99.90
5846;DHT22;2949;50.778;7.094;2023-01-25T00:06:53;2.00;99.90
5846;DHT22;2949;50.778;7.094;2023-01-25T00:09:20;1.90;99.90
5846;DHT22;2949;50.778;7.094;2023-01-25T00:11:46;1.90;99.90
5846;DHT22;2949;50.778;7.094;2023-01-25T00:14:13;2.00;99.90
5846;DHT22;2949;50.778;7.094;2023-01-25T00:16:39;2.00;99.90
5846;DHT22;2949;50.778;7.094;2023-01-25T00:19:05;2.00;99.90
5846;DHT22;2949;50.778;7.094;2023-01-25T00:21:32;2.00;99.90
5846;DHT22;2949;50.778;7.094;2023-01-25T00:23:59;1.90;99.90
5846;DHT22;2949;50.778;7.094;2023-01-25T00:26:24;1.80;99.90
5846;DHT22;2949;50.778;7.094;2023-01-25T00:28:51;1.80;99.90
5846;DHT22;2949;50.778;7.094;2023-01-25T00:31:53;1.80;99.90
5846;DHT22;2949;50.778;7.094;2023-01-25T00:36:57;1.80;99.90
5846;DHT22;2949;50.778;7.094;2023-01-25T00:39:26;1.70;99.90
5846;DHT22;2949;50.778;7.094;2023-01-25T00:41:52;1.80;99.90
5846;DHT22;2949;50.778;7.094;2023-01-25T00:44:17;1.80;99.90
5846;DHT22;2949;50.778;7.094;2023-01-25T00:46:43;1.90;99.90
5846;DHT22;2949;50.778;7.094;2023-01-25T00:49:23;1.90;99.90
5846;DHT22;2949;50.778;7.094;2023-01-25T00:51:50;1.90;99.90
5846;DHT22;2949;50.778;7.094;2023-01-25T00:54:16;1.90;99.90
5846;DHT22;2949;50.778;7.094;2023-01-25T00:56:41;1.90;99.90
5846;DHT22;2949;50.778;7.094;2023-01-25T00:59:08;1.80;99.90
5846;DHT22;2949;50.778;7.094;2023-01-25T01:01:33;1.90;99.90
5846;DHT22;2949;50.778;7.094;2023-01-25T01:03:59;1.90;99.90
5846;DHT22;2949;50.778;7.094;2023-01-25T01:06:24;1.80;99.90
5846;DHT22;2949;50.778;7.094;2023-01-25T01:08:50;1.80;99.90
5846;DHT22;2949;50.778;7.094;2023-01-25T01:11:15;1.80;99.90
5846;DHT22;2949;50.778;7.094;2023-01-25T01:13:41;1.80;99.90
5846;DHT22;2949;50.778;7.094;2023-01-25T01:16:08;1.80;99.90
5846;DHT22;2949;50.778;7.094;2023-01-25T01:18:41;1.80;99.90
5846;DHT22;2949;50.778;7.094;2023-01-25T01:21:07;1.80;99.90
5846;DHT22;2949;50.778;7.094;2023-01-25T01:23:34;1.80;99.90
5846;DHT22;2949;50.778;7.094;2023-01-25T01:26:04;1.70;99.90
5846;DHT22;2949;50.778;7.094;2023-01-25T01:28:30;1.70;99.90
5846;DHT22;2949;50.778;7.094;2023-01-25T01:31:05;1.70;99.90
5846;DHT22;2949;50.778;7.094;2023-01-25T01:33:30;1.70;99.90
5846;DHT22;2949;50.778;7.094;2023-01-25T01:35:56;1.70;99.90
5846;DHT22;2949;50.778;7.094;2023-01-25T01:38:22;1.60;99.90
5846;DHT22;2949;50.778;7.094;2023-01-25T01:40:48;1.60;99.90
5846;DHT22;2949;50.778;7.094;2023-01-25T01:43:19;1.60;99.90
5846;DHT22;2949;50.778;7.094;2023-01-25T01:46:03;1.60;99.90
5846;DHT22;2949;50.778;7.094;2023-01-25T01:53:51;1.50;99.90
5846;DHT22;2949;50.778;7.094;2023-01-25T01:56:23;1.50;99.90
5846;DHT22;2949;50.778;7.094;2023-01-25T01:58:52;1.50;99.90
5846;DHT22;2949;50.778;7.094;2023-01-25T02:01:18;1.50;99.90
5846;DHT22;2949;50.778;7.094;2023-01-25T02:03:44;1.50;99.90
5846;DHT22;2949;50.778;7.094;2023-01-25T02:06:26;1.60;99.90
5846;DHT22;2949;50.778;7.094;2023-01-25T02:08:53;1.50;99.90
5846;DHT22;2949;50.778;7.094;2023-01-25T02:11:20;1.50;99.90
5846;DHT22;2949;50.778;7.094;2023-01-25T02:13:46;1.60;99.90
5846;DHT22;2949;50.778;7.094;2023-01-25T02:16:25;1.60;99.90
5846;DHT22;2949;50.778;7.094;2023-01-25T02:18:53;1.50;99.90
5846;DHT22;2949;50.778;7.094;2023-01-25T02:21:22;1.60;99.90
5846;DHT22;2949;50.778;7.094;2023-01-25T02:26:30;1.70;99.90
5846;DHT22;2949;50.778;7.094;2023-01-25T02:29:03;1.70;99.90
5846;DHT22;2949;50.778;7.094;2023-01-25T02:31:29;1.70;99.90
5846;DHT22;2949;50.778;7.094;2023-01-25T02:33:54;1.70;99.90
5846;DHT22;2949;50.778;7.094;2023-01-25T02:36:27;1.70;99.90
5846;DHT22;2949;50.778;7.094;2023-01-25T02:39:02;1.70;99.90
5846;DHT22;2949;50.778;7.094;2023-01-25T02:43:56;1.60;99.90
5846;DHT22;2949;50.778;7.094;2023-01-25T02:46:31;1.60;99.90
5846;DHT22;2949;50.778;7.094;2023-01-25T02:48:58;1.60;99.90
5846;DHT22;2949;50.778;7.094;2023-01-25T02:51:25;1.60;99.90
5846;DHT22;2949;50.778;7.094;2023-01-25T02:53:51;1.50;99.90
5846;DHT22;2949;50.778;7.094;2023-01-25T02:56:19;1.50;99.90
5846;DHT22;2949;50.778;7.094;2023-01-25T02:58:45;1.50;99.90
5846;DHT22;2949;50.778;7.094;2023-01-25T03:01:12;1.40;99.90
5846;DHT22;2949;50.778;7.094;2023-01-25T03:03:38;1.40;99.90
5846;DHT22;2949;50.778;7.094;2023-01-25T03:06:04;1.40;99.90
5846;DHT22;2949;50.778;7.094;2023-01-25T03:08:30;1.50;99.90
5846;DHT22;2949;50.778;7.094;2023-01-25T03:11:01;1.60;99.90
5846;DHT22;2949;50.778;7.094;2023-01-25T03:13:27;1.50;99.90
5846;DHT22;2949;50.778;7.094;2023-01-25T03:15:59;1.50;99.90
5846;DHT22;2949;50.778;7.094;2023-01-25T03:18:25;1.40;99.90
5846;DHT22;2949;50.778;7.094;2023-01-25T03:20:50;1.40;99.90
5846;DHT22;2949;50.778;7.094;2023-01-25T03:23:16;1.40;99.90
5846;DHT22;2949;50.778;7.094;2023-01-25T03:25:41;1.40;99.90
5846;DHT22;2949;50.778;7.094;2023-01-25T03:28:07;1.40;99.90
5846;DHT22;2949;50.778;7.094;2023-01-25T03:30:32;1.50;99.90
5846;DHT22;2949;50.778;7.094;2023-01-25T03:32:58;1.40;99.90
5846;DHT22;2949;50.778;7.094;2023-01-25T03:35:23;1.40;99.90
5846;DHT22;2949;50.778;7.094;2023-01-25T03:37:49;1.50;99.90
5846;DHT22;2949;50.778;7.094;2023-01-25T03:40:15;1.40;99.90
5846;DHT22;2949;50.778;7.094;2023-01-25T03:42:40;1.40;99.90
5846;DHT22;2949;50.778;7.094;2023-01-25T03:45:06;1.40;99.90
5846;DHT22;2949;50.778;7.094;2023-01-25T03:47:31;1.30;99.90
5846;DHT22;2949;50.778;7.094;2023-01-25T03:49:57;1.30;99.90
5846;DHT22;2949;50.778;7.094;2023-01-25T03:52:22;1.30;99.90
5846;DHT22;2949;50.778;7.094;2023-01-25T03:54:50;1.30;99.90
5846;DHT22;2949;50.778;7.094;2023-01-25T03:57:16;1.30;99.90
5846;DHT22;2949;50.778;7.094;2023-01-25T03:59:41;1.40;99.90
5846;DHT22;2949;50.778;7.094;2023-01-25T04:02:07;1.40;99.90
5846;DHT22;2949;50.778;7.094;2023-01-25T04:04:32;1.50;99.90
5846;DHT22;2949;50.778;7.094;2023-01-25T04:06:58;1.50;99.90
5846;DHT22;2949;50.778;7.094;2023-01-25T04:09:23;1.50;99.90
5846;DHT22;2949;50.778;7.094;2023-01-25T04:11:49;1.50;99.90
5846;DHT22;2949;50.778;7.094;2023-01-25T04:14:15;1.40;99.90
5846;DHT22;2949;50.778;7.094;2023-01-25T04:16:41;1.30;99.90
5846;DHT22;2949;50.778;7.094;2023-01-25T04:19:06;1.30;99.90
5846;DHT22;2949;50.778;7.094;2023-01-25T04:21:32;1.20;99.90
5846;DHT22;2949;50.778;7.094;2023-01-25T04:23:57;1.20;99.90
5846;DHT22;2949;50.778;7.094;2023-01-25T04:26:23;1.20;99.90
5846;DHT22;2949;50.778;7.094;2023-01-25T04:28:48;1.10;99.90
5846;DHT22;2949;50.778;7.094;2023-01-25T04:31:14;1.10;99.90
5846;DHT22;2949;50.778;7.094;2023-01-25T04:33:40;1.20;99.90
5846;DHT22;2949;50.778;7.094;2023-01-25T04:36:05;1.20;99.90
5846;DHT22;2949;50.778;7.094;2023-01-25T04:38:31;1.20;99.90
5846;DHT22;2949;50.778;7.094;2023-01-25T04:40:56;1.20;99.90
5846;DHT22;2949;50.778;7.094;2023-01-25T04:43:22;1.10;99.90
5846;DHT22;2949;50.778;7.094;2023-01-25T04:45:48;1.10;99.90
5846;DHT22;2949;50.778;7.094;2023-01-25T04:48:14;1.20;99.90
5846;DHT22;2949;50.778;7.094;2023-01-25T04:50:41;1.20;99.90
5846;DHT22;2949;50.778;7.094;2023-01-25T04:53:08;1.20;99.90
5846;DHT22;2949;50.778;7.094;2023-01-25T04:55:34;1.10;99.90
5846;DHT22;2949;50.778;7.094;2023-01-25T04:58:00;1.00;99.90
5846;DHT22;2949;50.778;7.094;2023-01-25T05:00:26;1.00;99.90
5846;DHT22;2949;50.778;7.094;2023-01-25T05:02:53;1.00;99.90
5846;DHT22;2949;50.778;7.094;2023-01-25T05:05:18;1.00;99.90
5846;DHT22;2949;50.778;7.094;2023-01-25T05:07:44;1.00;99.90
5846;DHT22;2949;50.778;7.094;2023-01-25T05:10:10;1.00;99.90
5846;DHT22;2949;50.778;7.094;2023-01-25T05:12:36;1.00;99.90
5846;DHT22;2949;50.778;7.094;2023-01-25T05:15:01;1.00;99.90
5846;DHT22;2949;50.778;7.094;2023-01-25T05:17:27;1.10;99.90
5846;DHT22;2949;50.778;7.094;2023-01-25T05:19:52;1.10;99.90
5846;DHT22;2949;50.778;7.094;2023-01-25T05:22:18;1.10;99.90
5846;DHT22;2949;50.778;7.094;2023-01-25T05:24:45;1.10;99.90
5846;DHT22;2949;50.778;7.094;2023-01-25T05:27:13;1.20;99.90
5846;DHT22;2949;50.778;7.094;2023-01-25T05:29:41;1.30;99.90
5846;DHT22;2949;50.778;7.094;2023-01-25T05:32:09;1.30;99.90
5846;DHT22;2949;50.778;7.094;2023-01-25T05:34:35;1.30;99.90
5846;DHT22;2949;50.778;7.094;2023-01-25T05:37:01;1.20;99.90
5846;DHT22;2949;50.778;7.094;2023-01-25T05:39:27;1.20;99.90
5846;DHT22;2949;50.778;7.094;2023-01-25T05:41:53;1.20;99.90
5846;DHT22;2949;50.778;7.094;2023-01-25T05:44:19;1.30;99.90
5846;DHT22;2949;50.778;7.094;2023-01-25T05:46:45;1.30;99.90
5846;DHT22;2949;50.778;7.094;2023-01-25T05:49:11;1.30;99.90
5846;DHT22;2949;50.778;7.094;2023-01-25T05:51:37;1.30;99.90
5846;DHT22;2949;50.778;7.094;2023-01-25T05:54:04;1.30;99.90
5846;DHT22;2949;50.778;7.094;2023-01-25T05:56:30;1.30;99.90
5846;DHT22;2949;50.778;7.094;2023-01-25T05:58:57;1.20;99.90
5846;DHT22;2949;50.778;7.094;2023-01-25T06:01:24;1.20;99.90
5846;DHT22;2949;50.778;7.094;2023-01-25T06:03:50;1.20;99.90
5846;DHT22;2949;50.778;7.094;2023-01-25T06:06:15;1.30;99.90
5846;DHT22;2949;50.778;7.094;2023-01-25T06:08:41;1.30;99.90
5846;DHT22;2949;50.778;7.094;2023-01-25T06:11:08;1.30;99.90
5846;DHT22;2949;50.778;7.094;2023-01-25T06:13:36;1.30;99.90
5846;DHT22;2949;50.778;7.094;2023-01-25T06:16:02;1.30;99.90
5846;DHT22;2949;50.778;7.094;2023-01-25T06:18:31;1.60;99.90
5846;DHT22;2949;50.778;7.094;2023-01-25T06:20:57;1.30;99.90
5846;DHT22;2949;50.778;7.094;2023-01-25T06:23:24;1.30;99.90
5846;DHT22;2949;50.778;7.094;2023-01-25T06:25:49;1.20;99.90
5846;DHT22;2949;50.778;7.094;2023-01-25T06:28:15;1.20;99.90
5846;DHT22;2949;50.778;7.094;2023-01-25T06:30:40;1.20;99.90
5846;DHT22;2949;50.778;7.094;2023-01-25T06:33:06;1.20;99.90
5846;DHT22;2949;50.778;7.094;2023-01-25T06:35:32;1.20;99.90
5846;DHT22;2949;50.778;7.094;2023-01-25T06:37:58;1.30;99.90
5846;DHT22;2949;50.778;7.094;2023-01-25T06:40:25;1.20;99.90
5846;DHT22;2949;50.778;7.094;2023-01-25T06:42:51;1.20;99.90
5846;DHT22;2949;50.778;7.094;2023-01-25T06:45:17;1.20;99.90
5846;DHT22;2949;50.778;7.094;2023-01-25T06:47:43;1.20;99.90
5846;DHT22;2949;50.778;7.094;2023-01-25T06:50:09;1.20;99.90
5846;DHT22;2949;50.778;7.094;2023-01-25T06:52:35;1.20;99.90
5846;DHT22;2949;50.778;7.094;2023-01-25T06:55:02;1.20;99.90
5846;DHT22;2949;50.778;7.094;2023-01-25T06:57:27;1.10;99.90
5846;DHT22;2949;50.778;7.094;2023-01-25T06:59:54;1.10;99.90
5846;DHT22;2949;50.778;7.094;2023-01-25T07:02:20;1.10;99.90
5846;DHT22;2949;50.778;7.094;2023-01-25T07:04:46;1.10;99.90
5846;DHT22;2949;50.778;7.094;2023-01-25T07:07:12;1.10;99.90
5846;DHT22;2949;50.778;7.094;2023-01-25T07:09:37;1.20;99.90
5846;DHT22;2949;50.778;7.094;2023-01-25T07:12:03;1.20;99.90
5846;DHT22;2949;50.778;7.094;2023-01-25T07:14:29;1.20;99.90
5846;DHT22;2949;50.778;7.094;2023-01-25T07:16:55;1.10;99.90
5846;DHT22;2949;50.778;7.094;2023-01-25T07:19:21;1.10;99.90
5846;DHT22;2949;50.778;7.094;2023-01-25T07:21:47;1.10;99.90
5846;DHT22;2949;50.778;7.094;2023-01-25T07:24:14;1.10;99.90
5846;DHT22;2949;50.778;7.094;2023-01-25T07:26:40;1.10;99.90
5846;DHT22;2949;50.778;7.094;2023-01-25T07:29:06;1.10;99.90
5846;DHT22;2949;50.778;7.094;2023-01-25T07:31:34;1.10;99.90
5846;DHT22;2949;50.778;7.094;2023-01-25T07:33:59;1.10;99.90
5846;DHT22;2949;50.778;7.094;2023-01-25T07:36:25;1.10;99.90
5846;DHT22;2949;50.778;7.094;2023-01-25T07:38:55;1.10;99.90
5846;DHT22;2949;50.778;7.094;2023-01-25T07:41:22;1.10;99.90
5846;DHT22;2949;50.778;7.094;2023-01-25T07:43:47;1.10;99.90
5846;DHT22;2949;50.778;7.094;2023-01-25T07:46:13;1.10;99.90
5846;DHT22;2949;50.778;7.094;2023-01-25T07:48:44;1.10;99.90
5846;DHT22;2949;50.778;7.094;2023-01-25T07:51:10;1.10;99.90
5846;DHT22;2949;50.778;7.094;2023-01-25T07:53:49;1.10;99.90
5846;DHT22;2949;50.778;7.094;2023-01-25T07:56:17;1.10;99.90
5846;DHT22;2949;50.778;7.094;2023-01-25T07:58:44;1.10;99.90
5846;DHT22;2949;50.778;7.094;2023-01-25T08:01:12;1.00;99.90
5846;DHT22;2949;50.778;7.094;2023-01-25T08:03:38;1.00;99.90
5846;DHT22;2949;50.778;7.094;2023-01-25T08:06:04;1.00;99.90
5846;DHT22;2949;50.778;7.094;2023-01-25T08:08:31;1.10;99.90
5846;DHT22;2949;50.778;7.094;2023-01-25T08:11:00;1.10;99.90
5846;DHT22;2949;50.778;7.094;2023-01-25T08:13:25;1.10;99.90
5846;DHT22;2949;50.778;7.094;2023-01-25T08:15:54;1.10;99.90
5846;DHT22;2949;50.778;7.094;2023-01-25T08:18:20;1.20;99.90
5846;DHT22;2949;50.778;7.094;2023-01-25T08:20:46;1.20;99.90
5846;DHT22;2949;50.778;7.094;2023-01-25T08:23:12;1.20;99.90
5846;DHT22;2949;50.778;7.094;2023-01-25T08:25:38;1.30;99.90
5846;DHT22;2949;50.778;7.094;2023-01-25T08:28:04;1.30;99.90
5846;DHT22;2949;50.778;7.094;2023-01-25T08:30:29;1.30;99.90
5846;DHT22;2949;50.778;7.094;2023-01-25T08:32:55;1.20;99.90
5846;DHT22;2949;50.778;7.094;2023-01-25T08:35:21;1.20;99.90
5846;DHT22;2949;50.778;7.094;2023-01-25T08:37:46;1.20;99.90
5846;DHT22;2949;50.778;7.094;2023-01-25T08:40:12;1.20;99.90
5846;DHT22;2949;50.778;7.094;2023-01-25T08:42:38;1.20;99.90
5846;DHT22;2949;50.778;7.094;2023-01-25T08:45:04;1.20;99.90
5846;DHT22;2949;50.778;7.094;2023-01-25T08:47:30;1.20;99.90
5846;DHT22;2949;50.778;7.094;2023-01-25T08:49:56;1.20;99.90
5846;DHT22;2949;50.778;7.094;2023-01-25T08:52:21;1.20;99.90
5846;DHT22;2949;50.778;7.094;2023-01-25T08:54:47;1.20;99.90
5846;DHT22;2949;50.778;7.094;2023-01-25T08:57:12;1.20;99.90
5846;DHT22;2949;50.778;7.094;2023-01-25T08:59:38;1.20;99.90
5846;DHT22;2949;50.778;7.094;2023-01-25T09:02:04;1.20;99.90
5846;DHT22;2949;50.778;7.094;2023-01-25T09:04:29;1.20;99.90
5846;DHT22;2949;50.778;7.094;2023-01-25T09:06:55;1.20;99.90
5846;DHT22;2949;50.778;7.094;2023-01-25T09:09:20;1.20;99.90
5846;DHT22;2949;50.778;7.094;2023-01-25T09:11:49;1.20;99.90
5846;DHT22;2949;50.778;7.094;2023-01-25T09:14:15;1.20;99.90
5846;DHT22;2949;50.778;7.094;2023-01-25T09:16:40;1.30;99.90
5846;DHT22;2949;50.778;7.094;2023-01-25T09:19:06;1.30;99.90
5846;DHT22;2949;50.778;7.094;2023-01-25T09:21:32;1.40;99.90
5846;DHT22;2949;50.778;7.094;2023-01-25T09:23:58;1.40;99.90
5846;DHT22;2949;50.778;7.094;2023-01-25T09:26:24;1.40;99.90
5846;DHT22;2949;50.778;7.094;2023-01-25T09:28:52;1.50;99.90
5846;DHT22;2949;50.778;7.094;2023-01-25T09:31:19;1.50;99.90
5846;DHT22;2949;50.778;7.094;2023-01-25T09:33:45;1.50;99.90
5846;DHT22;2949;50.778;7.094;2023-01-25T09:36:11;1.50;99.90
5846;DHT22;2949;50.778;7.094;2023-01-25T09:38:37;1.50;99.90
5846;DHT22;2949;50.778;7.094;2023-01-25T09:46:45;1.50;99.90
5846;DHT22;2949;50.778;7.094;2023-01-25T09:52:21;1.50;99.90
5846;DHT22;2949;50.778;7.094;2023-01-25T09:54:51;1.40;99.90
5846;DHT22;2949;50.778;7.094;2023-01-25T09:59:49;1.40;99.90
5846;DHT22;2949;50.778;7.094;2023-01-25T10:02:53;1.30;99.90
5846;DHT22;2949;50.778;7.094;2023-01-25T10:05:23;1.30;99.90
5846;DHT22;2949;50.778;7.094;2023-01-25T10:07:57;1.30;99.90
5846;DHT22;2949;50.778;7.094;2023-01-25T10:10:39;1.30;99.90
5846;DHT22;2949;50.778;7.094;2023-01-25T10:13:13;1.30;99.90
5846;DHT22;2949;50.778;7.094;2023-01-25T10:15:43;1.40;99.90
5846;DHT22;2949;50.778;7.094;2023-01-25T10:20:57;1.40;99.90
5846;DHT22;2949;50.778;7.094;2023-01-25T10:26:35;1.40;99.90
5846;DHT22;2949;50.778;7.094;2023-01-25T10:29:14;1.40;99.90
5846;DHT22;2949;50.778;7.094;2023-01-25T10:36:55;1.70;99.90
5846;DHT22;2949;50.778;7.094;2023-01-25T10:39:21;1.70;99.90
5846;DHT22;2949;50.778;7.094;2023-01-25T10:41:57;1.60;99.90
5846;DHT22;2949;50.778;7.094;2023-01-25T10:44:27;1.50;99.90
5846;DHT22;2949;50.778;7.094;2023-01-25T10:46:58;1.50;99.90
5846;DHT22;2949;50.778;7.094;2023-01-25T10:49:32;1.60;99.90
5846;DHT22;2949;50.778;7.094;2023-01-25T10:54:40;1.70;99.90
5846;DHT22;2949;50.778;7.094;2023-01-25T10:57:07;1.70;99.90
5846;DHT22;2949;50.778;7.094;2023-01-25T10:59:36;1.70;99.90
5846;DHT22;2949;50.778;7.094;2023-01-25T11:02:40;1.70;99.90
5846;DHT22;2949;50.778;7.094;2023-01-25T11:07:43;1.80;99.90
5846;DHT22;2949;50.778;7.094;2023-01-25T11:10:33;1.80;99.90
5846;DHT22;2949;50.778;7.094;2023-01-25T11:18:28;1.80;99.90
5846;DHT22;2949;50.778;7.094;2023-01-25T11:21:15;1.80;99.90
5846;DHT22;2949;50.778;7.094;2023-01-25T11:24:28;1.80;99.90
5846;DHT22;2949;50.778;7.094;2023-01-25T11:26:30;1.80;99.90
5846;DHT22;2949;50.778;7.094;2023-01-25T11:29:20;1.80;99.90
5846;DHT22;2949;50.778;7.094;2023-01-25T11:31:53;1.80;99.90
5846;DHT22;2949;50.778;7.094;2023-01-25T11:34:23;1.80;99.90
5846;DHT22;2949;50.778;7.094;2023-01-25T11:42:40;1.80;99.90
5846;DHT22;2949;50.778;7.094;2023-01-25T11:54:27;1.70;99.90
5846;DHT22;2949;50.778;7.094;2023-01-25T12:00:00;1.60;99.90
5846;DHT22;2949;50.778;7.094;2023-01-25T12:02:45;1.50;99.90
5846;DHT22;2949;50.778;7.094;2023-01-25T12:05:24;1.60;99.90
5846;DHT22;2949;50.778;7.094;2023-01-25T12:16:07;1.60;99.90
5846;DHT22;2949;50.778;7.094;2023-01-25T12:19:10;1.60;99.90
5846;DHT22;2949;50.778;7.094;2023-01-25T12:30:25;1.70;99.90
5846;DHT22;2949;50.778;7.094;2023-01-25T12:38:38;1.70;99.90
5846;DHT22;2949;50.778;7.094;2023-01-25T12:41:30;1.70;99.90
5846;DHT22;2949;50.778;7.094;2023-01-25T12:44:19;1.80;99.90
5846;DHT22;2949;50.778;7.094;2023-01-25T12:47:04;1.80;99.90
5846;DHT22;2949;50.778;7.094;2023-01-25T12:49:45;1.70;99.90
5846;DHT22;2949;50.778;7.094;2023-01-25T12:52:32;1.70;99.90
5846;DHT22;2949;50.778;7.094;2023-01-25T12:55:05;1.70;99.90
5846;DHT22;2949;50.778;7.094;2023-01-25T12:57:47;1.60;99.90
5846;DHT22;2949;50.778;7.094;2023-01-25T13:00:21;1.60;99.90
5846;DHT22;2949;50.778;7.094;2023-01-25T13:08:46;1.60;99.90
5846;DHT22;2949;50.778;7.094;2023-01-25T13:11:21;1.50;99.90
5846;DHT22;2949;50.778;7.094;2023-01-25T13:13:49;1.50;99.90
5846;DHT22;2949;50.778;7.094;2023-01-25T13:16:35;1.50;99.90
5846;DHT22;2949;50.778;7.094;2023-01-25T13:19:02;1.50;99.90
5846;DHT22;2949;50.778;7.094;2023-01-25T13:21:39;1.50;99.90
5846;DHT22;2949;50.778;7.094;2023-01-25T13:24:28;1.50;99.90
5846;DHT22;2949;50.778;7.094;2023-01-25T13:32:01;1.50;99.90
5846;DHT22;2949;50.778;7.094;2023-01-25T13:37:27;1.50;99.90
5846;DHT22;2949;50.778;7.094;2023-01-25T13:40:01;1.40;99.90
5846;DHT22;2949;50.778;7.094;2023-01-25T13:42:27;1.40;99.90
5846;DHT22;2949;50.778;7.094;2023-01-25T13:45:19;1.40;99.90
5846;DHT22;2949;50.778;7.094;2023-01-25T13:50:26;1.40;99.90
5846;DHT22;2949;50.778;7.094;2023-01-25T13:52:58;1.40;99.90
5846;DHT22;2949;50.778;7.094;2023-01-25T13:55:24;1.40;99.90
5846;DHT22;2949;50.778;7.094;2023-01-25T13:57:50;1.40;99.90
5846;DHT22;2949;50.778;7.094;2023-01-25T14:00:17;1.40;99.90
5846;DHT22;2949;50.778;7.094;2023-01-25T14:02:44;1.40;99.90
5846;DHT22;2949;50.778;7.094;2023-01-25T14:05:21;1.50;99.90
5846;DHT22;2949;50.778;7.094;2023-01-25T14:07:49;1.50;99.90
5846;DHT22;2949;50.778;7.094;2023-01-25T14:10:21;1.40;99.90
5846;DHT22;2949;50.778;7.094;2023-01-25T14:12:49;1.50;99.90
5846;DHT22;2949;50.778;7.094;2023-01-25T14:15:23;1.40;99.90
5846;DHT22;2949;50.778;7.094;2023-01-25T14:18:14;1.40;99.90
5846;DHT22;2949;50.778;7.094;2023-01-25T14:20:45;1.40;99.90
5846;DHT22;2949;50.778;7.094;2023-01-25T14:25:46;1.30;99.90
5846;DHT22;2949;50.778;7.094;2023-01-25T14:28:13;1.30;99.90
5846;DHT22;2949;50.778;7.094;2023-01-25T14:30:40;1.30;99.90
5846;DHT22;2949;50.778;7.094;2023-01-25T14:33:30;1.30;99.90
5846;DHT22;2949;50.778;7.094;2023-01-25T14:36:08;1.30;99.90
5846;DHT22;2949;50.778;7.094;2023-01-25T14:38:38;1.40;99.90
5846;DHT22;2949;50.778;7.094;2023-01-25T14:43:57;1.30;99.90
5846;DHT22;2949;50.778;7.094;2023-01-25T14:46:33;1.30;99.90
5846;DHT22;2949;50.778;7.094;2023-01-25T14:51:32;1.30;99.90
5846;DHT22;2949;50.778;7.094;2023-01-25T14:53:59;1.30;99.90
5846;DHT22;2949;50.778;7.094;2023-01-25T14:56:38;1.30;99.90
5846;DHT22;2949;50.778;7.094;2023-01-25T14:59:05;1.40;99.90
5846;DHT22;2949;50.778;7.094;2023-01-25T15:01:37;1.30;99.90
5846;DHT22;2949;50.778;7.094;2023-01-25T15:04:11;1.30;99.90
5846;DHT22;2949;50.778;7.094;2023-01-25T15:06:49;1.40;99.90
5846;DHT22;2949;50.778;7.094;2023-01-25T15:09:32;1.30;99.90
5846;DHT22;2949;50.778;7.094;2023-01-25T15:14:51;1.30;99.90
5846;DHT22;2949;50.778;7.094;2023-01-25T15:20:05;1.20;99.90
5846;DHT22;2949;50.778;7.094;2023-01-25T15:22:31;1.20;99.90
5846;DHT22;2949;50.778;7.094;2023-01-25T15:24:56;1.20;99.90
5846;DHT22;2949;50.778;7.094;2023-01-25T15:27:22;1.20;99.90
5846;DHT22;2949;50.778;7.094;2023-01-25T15:29:48;1.20;99.90
5846;DHT22;2949;50.778;7.094;2023-01-25T15:32:19;1.20;99.90
5846;DHT22;2949;50.778;7.094;2023-01-25T15:34:45;1.10;99.90
5846;DHT22;2949;50.778;7.094;2023-01-25T15:37:11;1.10;99.90
5846;DHT22;2949;50.778;7.094;2023-01-25T15:39:36;1.10;99.90
5846;DHT22;2949;50.778;7.094;2023-01-25T15:42:02;1.10;99.90
5846;DHT22;2949;50.778;7.094;2023-01-25T15:44:27;1.10;99.90
5846;DHT22;2949;50.778;7.094;2023-01-25T15:46:53;1.10;99.90
5846;DHT22;2949;50.778;7.094;2023-01-25T15:49:26;1.00;99.90
5846;DHT22;2949;50.778;7.094;2023-01-25T15:51:53;1.00;99.90
5846;DHT22;2949;50.778;7.094;2023-01-25T15:54:18;1.00;99.90
5846;DHT22;2949;50.778;7.094;2023-01-25T15:56:51;1.00;99.90
5846;DHT22;2949;50.778;7.094;2023-01-25T15:59:19;1.00;99.90
5846;DHT22;2949;50.778;7.094;2023-01-25T16:01:44;0.90;99.90
5846;DHT22;2949;50.778;7.094;2023-01-25T16:04:10;0.90;99.90
5846;DHT22;2949;50.778;7.094;2023-01-25T16:06:50;0.90;99.90
5846;DHT22;2949;50.778;7.094;2023-01-25T16:11:48;0.90;99.90
5846;DHT22;2949;50.778;7.094;2023-01-25T16:14:15;0.80;99.90
5846;DHT22;2949;50.778;7.094;2023-01-25T16:16:49;0.80;99.90
5846;DHT22;2949;50.778;7.094;2023-01-25T16:19:17;0.80;99.90
5846;DHT22;2949;50.778;7.094;2023-01-25T16:21:43;0.80;99.90
5846;DHT22;2949;50.778;7.094;2023-01-25T16:24:09;0.80;99.90
5846;DHT22;2949;50.778;7.094;2023-01-25T16:26:43;0.80;99.90
5846;DHT22;2949;50.778;7.094;2023-01-25T16:29:10;0.80;99.90
5846;DHT22;2949;50.778;7.094;2023-01-25T16:31:36;0.80;99.90
5846;DHT22;2949;50.778;7.094;2023-01-25T16:34:02;0.80;99.90
5846;DHT22;2949;50.778;7.094;2023-01-25T16:36:28;0.90;99.90
5846;DHT22;2949;50.778;7.094;2023-01-25T16:38:53;0.80;99.90
5846;DHT22;2949;50.778;7.094;2023-01-25T16:41:19;0.80;99.90
5846;DHT22;2949;50.778;7.094;2023-01-25T16:43:46;0.80;99.90
5846;DHT22;2949;50.778;7.094;2023-01-25T16:46:18;0.70;99.90
5846;DHT22;2949;50.778;7.094;2023-01-25T16:48:45;0.70;99.90
5846;DHT22;2949;50.778;7.094;2023-01-25T16:51:29;0.70;99.90
5846;DHT22;2949;50.778;7.094;2023-01-25T16:53:56;0.70;99.90
5846;DHT22;2949;50.778;7.094;2023-01-25T17:01:18;0.70;99.90
5846;DHT22;2949;50.778;7.094;2023-01-25T17:03:44;0.70;99.90
5846;DHT22;2949;50.778;7.094;2023-01-25T17:06:28;0.70;99.90
5846;DHT22;2949;50.778;7.094;2023-01-25T17:08:56;0.70;99.90
5846;DHT22;2949;50.778;7.094;2023-01-25T17:11:22;0.70;99.90
5846;DHT22;2949;50.778;7.094;2023-01-25T17:13:49;0.70;99.90
5846;DHT22;2949;50.778;7.094;2023-01-25T17:16:16;0.70;99.90
5846;DHT22;2949;50.778;7.094;2023-01-25T17:18:42;0.70;99.90
5846;DHT22;2949;50.778;7.094;2023-01-25T17:21:09;0.70;99.90
5846;DHT22;2949;50.778;7.094;2023-01-25T17:23:35;0.70;99.90
5846;DHT22;2949;50.778;7.094;2023-01-25T17:26:10;0.70;99.90
5846;DHT22;2949;50.778;7.094;2023-01-25T17:28:35;0.70;99.90
5846;DHT22;2949;50.778;7.094;2023-01-25T17:31:01;0.70;99.90
5846;DHT22;2949;50.778;7.094;2023-01-25T17:33:27;0.70;99.90
5846;DHT22;2949;50.778;7.094;2023-01-25T17:35:53;0.60;99.90
5846;DHT22;2949;50.778;7.094;2023-01-25T17:38:26;0.60;99.90
5846;DHT22;2949;50.778;7.094;2023-01-25T17:40:52;0.60;99.90
5846;DHT22;2949;50.778;7.094;2023-01-25T17:43:18;0.60;99.90
5846;DHT22;2949;50.778;7.094;2023-01-25T17:45:44;0.70;99.90
5846;DHT22;2949;50.778;7.094;2023-01-25T17:48:10;0.70;99.90
5846;DHT22;2949;50.778;7.094;2023-01-25T17:50:37;0.70;99.90
5846;DHT22;2949;50.778;7.094;2023-01-25T17:53:03;0.70;99.90
5846;DHT22;2949;50.778;7.094;2023-01-25T17:55:29;0.70;99.90
5846;DHT22;2949;50.778;7.094;2023-01-25T17:57:56;0.60;99.90
5846;DHT22;2949;50.778;7.094;2023-01-25T18:00:22;0.60;99.90
5846;DHT22;2949;50.778;7.094;2023-01-25T18:02:48;0.60;99.90
5846;DHT22;2949;50.778;7.094;2023-01-25T18:05:13;0.60;99.90
5846;DHT22;2949;50.778;7.094;2023-01-25T18:07:40;0.60;99.90
5846;DHT22;2949;50.778;7.094;2023-01-25T18:10:06;0.60;99.90
5846;DHT22;2949;50.778;7.094;2023-01-25T18:12:32;0.60;99.90
5846;DHT22;2949;50.778;7.094;2023-01-25T18:14:57;0.60;99.90
5846;DHT22;2949;50.778;7.094;2023-01-25T18:17:23;0.60;99.90
5846;DHT22;2949;50.778;7.094;2023-01-25T18:19:49;0.60;99.90
5846;DHT22;2949;50.778;7.094;2023-01-25T18:22:14;0.60;99.90
5846;DHT22;2949;50.778;7.094;2023-01-25T18:24:40;0.60;99.90
5846;DHT22;2949;50.778;7.094;2023-01-25T18:27:18;0.60;99.90
5846;DHT22;2949;50.778;7.094;2023-01-25T18:29:54;0.60;99.90
5846;DHT22;2949;50.778;7.094;2023-01-25T18:32:23;0.50;99.90